createdAt,value
2023-05-12T00:01:31.524Z,20.30
2023-05-12T00:03:58.299Z,20.30
2023-05-12T00:06:24.998Z,20.30
2023-05-12T00:08:51.662Z,20.30
2023-05-12T00:11:18.267Z,20.30
2023-05-12T00:13:45.229Z,20.30
2023-05-12T00:16:11.914Z,20.30
2023-05-12T00:18:38.523Z,20.30
2023-05-12T00:21:05.599Z,20.30
2023-05-12T00:23:32.336Z,20.30
2023-05-12T00:25:58.936Z,20.30
2023-05-12T00:28:25.608Z,20.30
2023-05-12T00:30:52.254Z,20.30
2023-05-12T00:33:18.873Z,20.30
2023-05-12T00:35:45.728Z,20.30
2023-05-12T00:38:13.091Z,20.30
2023-05-12T00:40:40.141Z,20.30
2023-05-12T00:43:06.713Z,20.30
2023-05-12T00:45:33.341Z,20.30
2023-05-12T00:48:00.169Z,20.30
2023-05-12T00:50:27.317Z,20.30
2023-05-12T00:52:53.942Z,20.30
2023-05-12T00:55:20.677Z,20.30
2023-05-12T00:57:47.366Z,20.30
2023-05-12T01:00:14.072Z,20.30
2023-05-12T01:02:41.337Z,20.30
2023-05-12T01:05:09.860Z,20.30
2023-05-12T01:07:36.724Z,20.30
2023-05-12T01:10:03.554Z,20.30
2023-05-12T01:12:32.246Z,20.30
2023-05-12T01:14:59.028Z,20.20
2023-05-12T01:17:30.791Z,20.20
2023-05-12T01:19:59.251Z,20.20
2023-05-12T01:22:26.387Z,20.20
2023-05-12T01:24:54.978Z,20.10
2023-05-12T01:27:22.312Z,20.10
2023-05-12T01:29:49.724Z,20.10
2023-05-12T01:32:16.664Z,20.10
2023-05-12T01:34:43.422Z,20.10
2023-05-12T01:37:10.530Z,20.10
2023-05-12T01:40:08.213Z,20.10
2023-05-12T01:42:34.938Z,20.10
2023-05-12T01:45:01.601Z,20.10
2023-05-12T01:47:28.206Z,20.10
2023-05-12T01:49:54.867Z,20.10
2023-05-12T01:52:21.529Z,20.10
2023-05-12T01:54:48.221Z,20.10
2023-05-12T01:57:14.828Z,20.10
2023-05-12T01:59:41.380Z,20.10
2023-05-12T02:02:08.123Z,20.10
2023-05-12T02:04:34.831Z,20.10
2023-05-12T02:07:01.924Z,20.10
2023-05-12T02:09:28.721Z,20.10
2023-05-12T02:11:55.585Z,20.10
2023-05-12T02:14:22.274Z,20.10
2023-05-12T02:16:52.728Z,20.10
2023-05-12T02:19:20.122Z,20.10
2023-05-12T02:21:47.215Z,20.00
2023-05-12T02:24:15.002Z,20.00
2023-05-12T02:26:41.675Z,20.10
2023-05-12T02:29:08.267Z,20.00
2023-05-12T02:31:34.851Z,20.00
2023-05-12T02:34:01.950Z,20.10
2023-05-12T02:36:29.400Z,20.10
2023-05-12T02:38:56.305Z,20.10
2023-05-12T02:41:22.882Z,20.10
2023-05-12T02:43:49.452Z,20.00
2023-05-12T02:46:16.087Z,20.00
2023-05-12T02:48:42.690Z,20.00
2023-05-12T02:51:09.228Z,20.00
2023-05-12T02:53:36.205Z,20.00
2023-05-12T02:56:03.077Z,20.00
2023-05-12T02:58:29.968Z,20.00
2023-05-12T03:01:06.676Z,20.00
2023-05-12T03:03:36.483Z,20.00
2023-05-12T03:06:04.669Z,20.00
2023-05-12T03:08:31.507Z,20.00
2023-05-12T03:10:58.084Z,20.00
2023-05-12T03:13:24.767Z,20.00
2023-05-12T03:15:51.374Z,20.00
2023-05-12T03:18:18.025Z,20.00
2023-05-12T03:20:44.691Z,20.00
2023-05-12T03:23:11.814Z,20.00
2023-05-12T03:25:38.380Z,20.00
2023-05-12T03:28:05.528Z,20.00
2023-05-12T03:30:33.219Z,20.00
2023-05-12T03:33:00.056Z,19.90
2023-05-12T03:35:27.032Z,20.00
2023-05-12T03:37:53.651Z,20.00
2023-05-12T03:40:20.519Z,19.90
2023-05-12T03:42:47.321Z,19.90
2023-05-12T03:45:13.947Z,20.00
2023-05-12T03:47:40.907Z,19.90
2023-05-12T03:50:08.116Z,19.90
2023-05-12T03:52:34.866Z,19.90
2023-05-12T03:55:01.450Z,19.90
2023-05-12T03:57:28.493Z,19.90
2023-05-12T03:59:55.188Z,19.90
2023-05-12T04:02:21.855Z,19.90
2023-05-12T04:04:48.597Z,19.90
2023-05-12T04:07:15.179Z,19.90
2023-05-12T04:09:41.782Z,19.90
2023-05-12T04:12:08.463Z,19.90
2023-05-12T04:14:42.300Z,19.90
2023-05-12T04:17:10.089Z,19.90
2023-05-12T04:19:36.785Z,19.90
2023-05-12T04:22:03.698Z,19.90
2023-05-12T04:24:31.259Z,19.90
2023-05-12T04:26:58.279Z,19.90
2023-05-12T04:29:24.821Z,19.90
2023-05-12T04:31:51.452Z,19.90
2023-05-12T04:34:18.047Z,19.90
2023-05-12T04:36:44.613Z,19.90
2023-05-12T04:39:11.355Z,19.90
2023-05-12T04:41:37.912Z,19.80
2023-05-12T04:44:04.621Z,19.80
2023-05-12T04:46:31.332Z,19.80
2023-05-12T04:48:57.970Z,19.80
2023-05-12T04:51:24.540Z,19.80
2023-05-12T04:53:51.167Z,19.80
2023-05-12T04:56:17.795Z,19.80
2023-05-12T04:58:44.417Z,19.90
2023-05-12T05:01:12.546Z,19.80
2023-05-12T05:03:39.814Z,19.80
2023-05-12T05:06:06.615Z,19.80
2023-05-12T05:08:33.196Z,19.80
2023-05-12T05:10:59.833Z,19.80
2023-05-12T05:13:26.392Z,19.80
2023-05-12T05:15:53.719Z,19.80
2023-05-12T05:18:23.855Z,19.80
2023-05-12T05:20:57.344Z,19.80
2023-05-12T05:23:26.063Z,19.80
2023-05-12T05:25:52.892Z,19.80
2023-05-12T05:28:19.466Z,19.80
2023-05-12T05:30:46.129Z,19.80
2023-05-12T05:33:13.138Z,19.80
2023-05-12T05:35:39.989Z,19.80
2023-05-12T05:38:06.581Z,19.80
2023-05-12T05:40:44.944Z,19.80
2023-05-12T05:43:18.759Z,19.80
2023-05-12T05:45:45.406Z,19.80
2023-05-12T05:48:12.165Z,19.80
2023-05-12T05:50:38.931Z,19.90
2023-05-12T05:53:05.998Z,19.90
2023-05-12T05:55:32.515Z,19.90
2023-05-12T05:57:59.484Z,19.90
2023-05-12T06:00:26.044Z,19.80
2023-05-12T06:02:52.606Z,19.90
2023-05-12T06:05:19.761Z,19.90
2023-05-12T06:07:46.440Z,19.90
2023-05-12T06:10:13.057Z,19.90
2023-05-12T06:12:41.211Z,19.90
2023-05-12T06:15:08.471Z,19.90
2023-05-12T06:17:35.259Z,19.90
2023-05-12T06:20:02.164Z,19.90
2023-05-12T06:22:28.872Z,19.90
2023-05-12T06:24:55.519Z,19.90
2023-05-12T06:27:22.151Z,19.90
2023-05-12T06:29:49.038Z,19.90
2023-05-12T06:32:15.693Z,19.90
2023-05-12T06:34:42.334Z,19.90
2023-05-12T06:37:09.085Z,19.90
2023-05-12T06:39:35.851Z,19.90
2023-05-12T06:42:02.522Z,19.90
2023-05-12T06:44:29.090Z,19.90
2023-05-12T06:46:55.903Z,19.90
2023-05-12T06:49:22.593Z,19.90
2023-05-12T06:51:49.180Z,19.90
2023-05-12T06:54:15.832Z,19.90
2023-05-12T06:56:42.407Z,19.90
2023-05-12T06:59:08.964Z,19.90
2023-05-12T07:01:35.666Z,19.90
2023-05-12T07:04:02.363Z,19.90
2023-05-12T07:06:29.174Z,20.00
2023-05-12T07:08:56.096Z,20.00
2023-05-12T07:11:23.043Z,20.00
2023-05-12T07:13:50.326Z,20.00
2023-05-12T07:16:17.267Z,20.00
2023-05-12T07:18:43.957Z,20.00
2023-05-12T07:21:10.712Z,20.00
2023-05-12T07:23:37.786Z,20.00
2023-05-12T07:26:05.276Z,20.00
2023-05-12T07:28:35.564Z,20.00
2023-05-12T07:31:02.856Z,20.00
2023-05-12T07:33:29.854Z,20.00
2023-05-12T07:35:56.678Z,20.00
2023-05-12T07:38:24.078Z,20.00
2023-05-12T07:40:51.393Z,20.00
2023-05-12T07:43:17.956Z,20.00
2023-05-12T07:45:45.181Z,20.00
2023-05-12T07:48:12.017Z,20.00
2023-05-12T07:50:38.862Z,20.00
2023-05-12T07:53:05.958Z,20.00
2023-05-12T07:55:35.615Z,20.00
2023-05-12T07:58:02.275Z,20.10
2023-05-12T08:00:28.895Z,20.10
2023-05-12T08:02:56.576Z,20.10
2023-05-12T08:05:23.257Z,20.10
2023-05-12T08:07:49.866Z,20.10
2023-05-12T08:10:16.614Z,20.10
2023-05-12T08:12:43.250Z,20.20
2023-05-12T08:15:10.283Z,20.20
2023-05-12T08:17:36.978Z,20.30
2023-05-12T08:20:06.615Z,20.30
2023-05-12T08:22:33.476Z,20.30
2023-05-12T08:25:00.251Z,20.30
2023-05-12T08:27:26.955Z,20.30
2023-05-12T08:29:53.558Z,20.30
2023-05-12T08:32:20.209Z,20.30
2023-05-12T08:34:46.897Z,20.30
2023-05-12T08:37:13.490Z,20.30
2023-05-12T08:39:40.445Z,20.30
2023-05-12T08:42:25.600Z,20.30
2023-05-12T08:44:53.239Z,20.30
2023-05-12T08:47:20.348Z,20.30
2023-05-12T08:49:51.087Z,20.30
2023-05-12T08:52:22.143Z,20.30
2023-05-12T08:54:56.110Z,20.30
2023-05-12T08:57:23.696Z,20.40
2023-05-12T08:59:53.060Z,20.30
2023-05-12T09:02:21.208Z,20.40
2023-05-12T09:04:48.496Z,20.40
2023-05-12T09:07:16.068Z,20.40
2023-05-12T09:09:44.126Z,20.50
2023-05-12T09:12:12.772Z,20.50
2023-05-12T09:14:40.682Z,20.50
2023-05-12T09:17:07.513Z,20.50
2023-05-12T09:19:35.120Z,20.50
2023-05-12T09:22:01.659Z,20.50
2023-05-12T09:24:35.368Z,20.50
2023-05-12T09:27:02.192Z,20.50
2023-05-12T09:29:31.684Z,20.50
2023-05-12T09:32:02.836Z,20.60
2023-05-12T09:34:38.270Z,20.60
2023-05-12T09:37:06.437Z,20.60
2023-05-12T09:39:33.482Z,20.60
2023-05-12T09:42:00.196Z,20.60
2023-05-12T09:44:30.104Z,20.60
2023-05-12T09:47:05.508Z,20.60
2023-05-12T09:49:32.106Z,20.60
2023-05-12T09:51:59.034Z,20.70
2023-05-12T09:54:26.390Z,20.70
2023-05-12T09:56:53.107Z,20.70
2023-05-12T09:59:21.148Z,20.70
2023-05-12T10:01:48.076Z,20.70
2023-05-12T10:04:14.761Z,20.70
2023-05-12T10:06:47.342Z,20.70
2023-05-12T10:09:22.107Z,20.70
2023-05-12T10:11:52.035Z,20.70
2023-05-12T10:14:22.585Z,20.70
2023-05-12T10:16:49.693Z,20.70
2023-05-12T10:19:17.248Z,20.70
2023-05-12T10:21:46.316Z,20.70
2023-05-12T10:24:14.642Z,20.80
2023-05-12T10:26:42.276Z,20.70
2023-05-12T10:29:09.710Z,20.80
2023-05-12T10:31:37.178Z,20.80
2023-05-12T10:34:03.980Z,20.80
2023-05-12T10:36:30.591Z,20.80
2023-05-12T10:39:04.646Z,20.80
2023-05-12T10:41:35.254Z,20.80
2023-05-12T10:44:01.919Z,20.80
2023-05-12T10:46:28.539Z,20.90
2023-05-12T10:48:59.144Z,20.90
2023-05-12T10:51:28.622Z,20.90
2023-05-12T10:53:59.310Z,21.00
2023-05-12T10:56:28.381Z,21.00
2023-05-12T10:59:09.419Z,21.00
2023-05-12T11:01:37.628Z,21.00
2023-05-12T11:04:15.001Z,21.00
2023-05-12T11:06:43.318Z,21.00
2023-05-12T11:09:13.836Z,21.00
2023-05-12T11:11:40.821Z,21.00
2023-05-12T11:14:08.249Z,21.00
2023-05-12T11:16:41.044Z,21.00
2023-05-12T11:19:07.679Z,21.00
2023-05-12T11:21:34.557Z,21.10
2023-05-12T11:24:02.247Z,21.10
2023-05-12T11:26:29.468Z,21.10
2023-05-12T11:28:59.402Z,21.10
2023-05-12T11:31:26.121Z,21.10
2023-05-12T11:34:12.982Z,21.10
2023-05-12T11:36:44.088Z,21.10
2023-05-12T11:39:17.306Z,21.20
2023-05-12T11:41:44.282Z,21.20
2023-05-12T11:44:13.886Z,21.20
2023-05-12T11:46:41.201Z,21.20
2023-05-12T11:49:11.831Z,21.20
2023-05-12T11:51:41.862Z,21.30
2023-05-12T11:54:08.936Z,21.30
2023-05-12T11:56:35.603Z,21.30
2023-05-12T11:59:02.201Z,21.30
2023-05-12T12:01:28.731Z,21.30
2023-05-12T12:03:55.742Z,21.40
2023-05-12T12:06:22.934Z,21.40
2023-05-12T12:08:50.274Z,21.40
2023-05-12T12:11:21.294Z,21.40
2023-05-12T12:13:56.480Z,21.40
2023-05-12T12:16:32.397Z,21.40
2023-05-12T12:18:59.094Z,21.40
2023-05-12T12:21:25.700Z,21.40
2023-05-12T12:23:52.560Z,21.50
2023-05-12T12:26:21.044Z,21.50
2023-05-12T12:28:47.843Z,21.50
2023-05-12T12:31:14.866Z,21.50
2023-05-12T12:33:41.597Z,21.50
2023-05-12T12:36:08.370Z,21.50
2023-05-12T12:38:34.886Z,21.50
2023-05-12T12:41:01.437Z,21.50
2023-05-12T12:43:28.014Z,21.50
2023-05-12T12:45:54.638Z,21.50
2023-05-12T12:48:21.606Z,21.60
2023-05-12T12:50:48.452Z,21.60
2023-05-12T12:53:15.088Z,21.60
2023-05-12T12:55:41.812Z,21.70
2023-05-12T12:58:08.408Z,21.70
2023-05-12T13:00:35.003Z,21.70
2023-05-12T13:03:01.848Z,21.70
2023-05-12T13:05:28.453Z,21.70
2023-05-12T13:07:55.593Z,21.60
2023-05-12T13:10:22.225Z,21.60
2023-05-12T13:12:48.770Z,21.50
2023-05-12T13:15:15.994Z,21.50
2023-05-12T13:17:43.272Z,21.50
2023-05-12T13:20:14.539Z,21.50
2023-05-12T13:22:41.741Z,21.60
2023-05-12T13:25:08.778Z,21.50
2023-05-12T13:27:36.169Z,21.60
2023-05-12T13:30:04.841Z,21.60
2023-05-12T13:32:32.011Z,21.60
2023-05-12T13:34:59.068Z,21.70
2023-05-12T13:37:25.672Z,21.60
2023-05-12T13:39:52.448Z,21.70
2023-05-12T13:42:19.075Z,21.70
2023-05-12T13:44:45.658Z,21.70
2023-05-12T13:47:12.279Z,21.70
2023-05-12T13:49:39.116Z,21.70
2023-05-12T13:52:06.011Z,21.70
2023-05-12T13:54:32.878Z,21.70
2023-05-12T13:56:59.719Z,21.70
2023-05-12T13:59:26.321Z,21.70
2023-05-12T14:01:52.916Z,21.70
2023-05-12T14:04:19.507Z,21.70
2023-05-12T14:06:46.125Z,21.70
2023-05-12T14:09:12.736Z,21.80
2023-05-12T14:11:39.437Z,21.80
2023-05-12T14:14:06.825Z,21.70
2023-05-12T14:16:33.552Z,21.70
2023-05-12T14:19:00.598Z,21.70
2023-05-12T14:21:27.308Z,21.70
2023-05-12T14:23:53.858Z,21.70
2023-05-12T14:26:21.446Z,21.70
2023-05-12T14:28:48.130Z,21.80
2023-05-12T14:31:14.930Z,21.80
2023-05-12T14:33:41.565Z,21.90
2023-05-12T14:36:09.029Z,21.80
2023-05-12T14:38:35.872Z,21.80
2023-05-12T14:41:02.467Z,21.80
2023-05-12T14:43:29.101Z,21.80
2023-05-12T14:45:55.895Z,21.80
2023-05-12T14:48:23.669Z,21.80
2023-05-12T14:50:53.922Z,21.80
2023-05-12T14:53:20.868Z,21.70
2023-05-12T14:55:48.562Z,21.70
2023-05-12T14:58:15.321Z,21.70
2023-05-12T15:00:42.001Z,21.70
2023-05-12T15:03:08.635Z,21.70
2023-05-12T15:05:52.686Z,21.70
2023-05-12T15:08:22.001Z,21.70
2023-05-12T15:10:48.627Z,21.70
2023-05-12T15:13:17.796Z,21.70
2023-05-12T15:15:44.350Z,21.70
2023-05-12T15:18:11.004Z,21.70
2023-05-12T15:20:37.976Z,21.70
2023-05-12T15:23:04.761Z,21.70
2023-05-12T15:25:31.372Z,21.70
2023-05-12T15:27:57.965Z,21.70
2023-05-12T15:30:24.597Z,21.70
2023-05-12T15:32:51.264Z,21.70
2023-05-12T15:35:17.943Z,21.70
2023-05-12T15:37:44.589Z,21.70
2023-05-12T15:40:13.160Z,21.70
2023-05-12T15:42:40.041Z,21.70
2023-05-12T15:45:07.181Z,21.70
2023-05-12T15:47:34.166Z,21.70
2023-05-12T15:50:00.795Z,21.70
2023-05-12T15:52:27.757Z,21.70
2023-05-12T15:54:54.514Z,21.70
2023-05-12T15:57:21.241Z,21.70
2023-05-12T15:59:49.172Z,21.70
2023-05-12T16:02:16.922Z,21.70
2023-05-12T16:04:44.261Z,21.80
2023-05-12T16:07:11.243Z,21.80
2023-05-12T16:09:37.818Z,21.80
2023-05-12T16:12:05.476Z,21.80
2023-05-12T16:14:32.879Z,21.80
2023-05-12T16:16:59.704Z,21.80
2023-05-12T16:19:26.306Z,21.70
2023-05-12T16:21:54.605Z,21.70
2023-05-12T16:24:21.229Z,21.70
2023-05-12T16:26:47.806Z,21.70
2023-05-12T16:29:14.335Z,21.70
2023-05-12T16:31:40.970Z,21.70
2023-05-12T16:34:07.560Z,21.70
2023-05-12T16:36:34.286Z,21.60
2023-05-12T16:39:00.854Z,21.60
2023-05-12T16:41:28.794Z,21.60
2023-05-12T16:43:55.461Z,21.60
2023-05-12T16:46:22.289Z,21.60
2023-05-12T16:48:48.959Z,21.60
2023-05-12T16:51:15.558Z,21.50
2023-05-12T16:53:42.593Z,21.50
2023-05-12T16:56:09.266Z,21.50
2023-05-12T16:58:36.223Z,21.50
2023-05-12T17:01:02.974Z,21.50
2023-05-12T17:03:29.710Z,21.50
2023-05-12T17:05:56.437Z,21.50
2023-05-12T17:08:23.151Z,21.50
2023-05-12T17:10:51.198Z,21.50
2023-05-12T17:13:17.812Z,21.50
2023-05-12T17:15:44.439Z,21.50
2023-05-12T17:18:12.734Z,21.50
2023-05-12T17:20:39.543Z,21.50
2023-05-12T17:23:06.207Z,21.50
2023-05-12T17:25:33.059Z,21.50
2023-05-12T17:27:59.672Z,21.50
2023-05-12T17:30:26.415Z,21.50
2023-05-12T17:32:53.545Z,21.50
2023-05-12T17:35:20.393Z,21.50
2023-05-12T17:37:47.870Z,21.50
2023-05-12T17:40:16.230Z,21.50
2023-05-12T17:42:43.089Z,21.50
2023-05-12T17:45:09.895Z,21.40
2023-05-12T17:47:36.542Z,21.50
2023-05-12T17:50:03.281Z,21.50
2023-05-12T17:52:29.894Z,21.40
2023-05-12T17:54:57.238Z,21.40
2023-05-12T17:57:23.966Z,21.40
2023-05-12T17:59:50.798Z,21.40
2023-05-12T18:02:17.634Z,21.40
2023-05-12T18:04:44.210Z,21.40
2023-05-12T18:07:10.884Z,21.40
2023-05-12T18:09:37.476Z,21.40
2023-05-12T18:12:04.124Z,21.40
2023-05-12T18:14:30.850Z,21.40
2023-05-12T18:16:57.543Z,21.30
2023-05-12T18:19:24.128Z,21.30
2023-05-12T18:21:51.004Z,21.30
2023-05-12T18:24:17.667Z,21.30
2023-05-12T18:26:44.559Z,21.30
2023-05-12T18:29:11.143Z,21.30
2023-05-12T18:31:38.021Z,21.30
2023-05-12T18:34:04.605Z,21.30
2023-05-12T18:36:31.362Z,21.30
2023-05-12T18:38:58.100Z,21.30
2023-05-12T18:41:24.940Z,21.30
2023-05-12T18:43:51.725Z,21.30
2023-05-12T18:46:18.706Z,21.30
2023-05-12T18:48:45.267Z,21.30
2023-05-12T18:51:11.926Z,21.30
2023-05-12T18:53:38.487Z,21.30
2023-05-12T18:56:05.079Z,21.30
2023-05-12T18:58:31.645Z,21.30
2023-05-12T19:00:58.257Z,21.30
2023-05-12T19:03:24.754Z,21.20
2023-05-12T19:05:51.328Z,21.20
2023-05-12T19:08:19.815Z,21.20
2023-05-12T19:10:47.404Z,21.30
2023-05-12T19:13:14.030Z,21.20
2023-05-12T19:15:40.629Z,21.20
2023-05-12T19:18:07.585Z,21.20
2023-05-12T19:20:34.373Z,21.20
2023-05-12T19:23:01.085Z,21.20
2023-05-12T19:25:27.721Z,21.20
2023-05-12T19:27:54.657Z,21.10
2023-05-12T19:30:21.245Z,21.10
2023-05-12T19:32:47.948Z,21.10
2023-05-12T19:35:14.648Z,21.10
2023-05-12T19:37:41.420Z,21.10
2023-05-12T19:40:08.264Z,21.10
2023-05-12T19:42:37.780Z,21.10
2023-05-12T19:45:04.818Z,21.10
2023-05-12T19:47:31.458Z,21.10
2023-05-12T19:49:58.094Z,21.10
2023-05-12T19:52:24.788Z,21.10
2023-05-12T19:54:51.840Z,21.10
2023-05-12T19:57:18.904Z,21.10
2023-05-12T19:59:45.576Z,21.10
2023-05-12T20:02:14.986Z,21.10
2023-05-12T20:04:41.705Z,21.10
2023-05-12T20:07:08.675Z,21.10
2023-05-12T20:09:35.374Z,21.10
2023-05-12T20:12:02.185Z,21.10
2023-05-12T20:14:28.720Z,21.10
2023-05-12T20:16:55.639Z,21.10
2023-05-12T20:19:22.673Z,21.10
2023-05-12T20:21:49.181Z,21.10
2023-05-12T20:24:15.777Z,21.10
2023-05-12T20:26:42.544Z,21.10
2023-05-12T20:29:09.118Z,21.10
2023-05-12T20:31:35.776Z,21.00
2023-05-12T20:34:02.849Z,21.00
2023-05-12T20:36:29.409Z,21.00
2023-05-12T20:38:56.117Z,21.00
2023-05-12T20:41:22.744Z,21.00
2023-05-12T20:43:49.336Z,21.00
2023-05-12T20:46:15.965Z,21.00
2023-05-12T20:48:42.676Z,21.00
2023-05-12T20:51:10.046Z,21.00
2023-05-12T20:53:36.630Z,21.00
2023-05-12T20:56:03.238Z,21.00
2023-05-12T20:58:29.784Z,21.00
2023-05-12T21:00:56.305Z,21.00
2023-05-12T21:03:23.969Z,21.00
2023-05-12T21:05:50.675Z,21.00
2023-05-12T21:08:17.297Z,21.00
2023-05-12T21:10:43.901Z,21.00
2023-05-12T21:13:10.488Z,21.00
2023-05-12T21:15:37.088Z,21.00
2023-05-12T21:18:03.702Z,21.00
2023-05-12T21:20:30.258Z,21.00
2023-05-12T21:22:57.138Z,21.00
2023-05-12T21:25:23.927Z,20.90
2023-05-12T21:27:50.585Z,20.90
2023-05-12T21:30:17.172Z,20.90
2023-05-12T21:32:44.243Z,20.90
2023-05-12T21:35:11.218Z,20.90
2023-05-12T21:37:37.881Z,20.90
2023-05-12T21:40:04.990Z,20.90
2023-05-12T21:42:31.618Z,20.90
2023-05-12T21:44:58.250Z,20.90
2023-05-12T21:47:25.517Z,20.90
2023-05-12T21:49:55.492Z,20.90
2023-05-12T21:52:22.513Z,20.90
2023-05-12T21:54:49.294Z,20.90
2023-05-12T21:57:15.895Z,20.90
2023-05-12T21:59:42.494Z,20.90
2023-05-12T22:02:09.069Z,20.90
2023-05-12T22:04:35.635Z,20.90
2023-05-12T22:07:02.204Z,20.90
2023-05-12T22:09:30.949Z,20.90
2023-05-12T22:11:57.884Z,20.90
2023-05-12T22:14:24.810Z,20.90
2023-05-12T22:16:51.529Z,20.90
2023-05-12T22:19:18.266Z,20.90
2023-05-12T22:21:45.035Z,20.80
2023-05-12T22:24:11.647Z,20.90
2023-05-12T22:26:38.405Z,20.90
2023-05-12T22:29:04.927Z,20.80
2023-05-12T22:31:31.579Z,20.80
2023-05-12T22:33:58.219Z,20.80
2023-05-12T22:36:24.801Z,20.80
2023-05-12T22:38:51.529Z,20.80
2023-05-12T22:41:18.065Z,20.80
2023-05-12T22:43:44.622Z,20.80
2023-05-12T22:46:11.270Z,20.80
2023-05-12T22:48:39.346Z,20.80
2023-05-12T22:51:06.555Z,20.80
2023-05-12T22:53:33.588Z,20.80
2023-05-12T22:56:00.186Z,20.80
2023-05-12T22:58:26.685Z,20.80
2023-05-12T23:00:53.590Z,20.80
2023-05-12T23:03:20.242Z,20.80
2023-05-12T23:05:46.791Z,20.80
2023-05-12T23:08:13.456Z,20.80
2023-05-12T23:10:40.061Z,20.80
2023-05-12T23:13:06.674Z,20.80
2023-05-12T23:15:33.578Z,20.80
2023-05-12T23:18:00.328Z,20.80
2023-05-12T23:20:26.964Z,20.80
2023-05-12T23:22:53.521Z,20.80
2023-05-12T23:25:20.293Z,20.80
2023-05-12T23:27:46.847Z,20.80
2023-05-12T23:30:13.622Z,20.70
2023-05-12T23:32:41.530Z,20.80
2023-05-12T23:35:08.556Z,20.70
2023-05-12T23:37:35.173Z,20.70
2023-05-12T23:40:01.921Z,20.70
2023-05-12T23:42:28.417Z,20.70
2023-05-12T23:44:55.237Z,20.70
2023-05-12T23:47:21.884Z,20.70
2023-05-12T23:49:48.470Z,20.70
2023-05-12T23:52:15.082Z,20.70
2023-05-12T23:54:41.765Z,20.70
2023-05-12T23:57:08.286Z,20.70
2023-05-12T23:59:34.923Z,20.70
